sensor_id;sensor_type;location;lat;lon;timestamp;pressure;altitude;pressure_sealevel;temperature;humidity
37694;BME280;23531;50.122;8.644;2022-08-14T00:01:45;100233.59;;;24.83;nan
37694;BME280;23531;50.122;8.644;2022-08-14T00:03:46;100228.25;;;24.86;nan
37694;BME280;23531;50.122;8.644;2022-08-14T00:05:48;100226.03;;;24.88;nan
37694;BME280;23531;50.122;8.644;2022-08-14T00:07:50;100220.31;;;24.85;nan
37694;BME280;23531;50.122;8.644;2022-08-14T00:09:51;100216.69;;;24.76;nan
37694;BME280;23531;50.122;8.644;2022-08-14T00:11:53;100214.66;;;24.68;nan
37694;BME280;23531;50.122;8.644;2022-08-14T00:13:55;100210.97;;;24.72;nan
37694;BME280;23531;50.122;8.644;2022-08-14T00:15:58;100211.41;;;24.66;nan
37694;BME280;23531;50.122;8.644;2022-08-14T00:18:02;100208.75;;;24.60;nan
37694;BME280;23531;50.122;8.644;2022-08-14T00:20:04;100203.25;;;24.60;nan
37694;BME280;23531;50.122;8.644;2022-08-14T00:22:06;100199.00;;;24.54;nan
37694;BME280;23531;50.122;8.644;2022-08-14T00:24:07;100194.53;;;24.58;nan
37694;BME280;23531;50.122;8.644;2022-08-14T00:26:09;100194.03;;;24.56;nan
37694;BME280;23531;50.122;8.644;2022-08-14T00:28:11;100196.56;;;24.53;nan
37694;BME280;23531;50.122;8.644;2022-08-14T00:30:14;100192.91;;;24.44;nan
37694;BME280;23531;50.122;8.644;2022-08-14T00:32:15;100198.31;;;24.49;nan
37694;BME280;23531;50.122;8.644;2022-08-14T00:34:18;100191.72;;;24.36;nan
37694;BME280;23531;50.122;8.644;2022-08-14T00:36:21;100191.72;;;24.22;nan
37694;BME280;23531;50.122;8.644;2022-08-14T00:38:22;100177.97;;;24.22;nan
37694;BME280;23531;50.122;8.644;2022-08-14T00:40:24;100179.00;;;24.27;nan
37694;BME280;23531;50.122;8.644;2022-08-14T00:42:26;100172.69;;;24.26;nan
37694;BME280;23531;50.122;8.644;2022-08-14T00:44:29;100173.38;;;24.32;nan
37694;BME280;23531;50.122;8.644;2022-08-14T00:46:30;100179.50;;;24.29;nan
37694;BME280;23531;50.122;8.644;2022-08-14T00:48:32;100174.00;;;24.29;nan
37694;BME280;23531;50.122;8.644;2022-08-14T00:50:35;100180.31;;;24.29;nan
37694;BME280;23531;50.122;8.644;2022-08-14T00:52:37;100165.16;;;24.32;nan
37694;BME280;23531;50.122;8.644;2022-08-14T00:54:38;100166.88;;;24.28;nan
37694;BME280;23531;50.122;8.644;2022-08-14T00:56:40;100168.81;;;24.27;nan
37694;BME280;23531;50.122;8.644;2022-08-14T00:58:41;100163.78;;;24.15;nan
37694;BME280;23531;50.122;8.644;2022-08-14T01:00:43;100174.78;;;24.15;nan
37694;BME280;23531;50.122;8.644;2022-08-14T01:02:44;100171.44;;;24.18;nan
37694;BME280;23531;50.122;8.644;2022-08-14T01:04:46;100162.59;;;24.21;nan
37694;BME280;23531;50.122;8.644;2022-08-14T01:06:49;100158.16;;;24.26;nan
37694;BME280;23531;50.122;8.644;2022-08-14T01:08:51;100165.28;;;24.27;nan
37694;BME280;23531;50.122;8.644;2022-08-14T01:10:56;100160.13;;;24.20;nan
37694;BME280;23531;50.122;8.644;2022-08-14T01:12:58;100154.03;;;24.09;nan
37694;BME280;23531;50.122;8.644;2022-08-14T01:15:01;100155.66;;;24.10;nan
37694;BME280;23531;50.122;8.644;2022-08-14T01:17:03;100150.59;;;24.04;nan
37694;BME280;23531;50.122;8.644;2022-08-14T01:19:05;100149.28;;;24.01;nan
37694;BME280;23531;50.122;8.644;2022-08-14T01:21:29;100152.09;;;23.96;nan
37694;BME280;23531;50.122;8.644;2022-08-14T01:23:30;100149.19;;;23.93;nan
37694;BME280;23531;50.122;8.644;2022-08-14T01:25:32;100149.38;;;23.96;nan
37694;BME280;23531;50.122;8.644;2022-08-14T01:27:34;100151.50;;;23.99;nan
37694;BME280;23531;50.122;8.644;2022-08-14T01:29:36;100152.00;;;23.87;nan
37694;BME280;23531;50.122;8.644;2022-08-14T01:31:38;100149.69;;;23.81;nan
37694;BME280;23531;50.122;8.644;2022-08-14T01:33:43;100148.66;;;23.77;nan
37694;BME280;23531;50.122;8.644;2022-08-14T01:35:45;100138.69;;;23.81;nan
37694;BME280;23531;50.122;8.644;2022-08-14T01:37:48;100143.69;;;23.79;nan
37694;BME280;23531;50.122;8.644;2022-08-14T01:39:50;100138.78;;;23.76;nan
37694;BME280;23531;50.122;8.644;2022-08-14T01:41:51;100138.56;;;23.72;nan
37694;BME280;23531;50.122;8.644;2022-08-14T01:43:57;100136.63;;;23.59;nan
37694;BME280;23531;50.122;8.644;2022-08-14T01:46:00;100132.28;;;23.58;nan
37694;BME280;23531;50.122;8.644;2022-08-14T01:48:01;100127.75;;;23.48;nan
37694;BME280;23531;50.122;8.644;2022-08-14T01:50:04;100120.22;;;23.40;nan
37694;BME280;23531;50.122;8.644;2022-08-14T01:52:06;100121.84;;;23.41;nan
37694;BME280;23531;50.122;8.644;2022-08-14T01:54:11;100115.66;;;23.36;nan
37694;BME280;23531;50.122;8.644;2022-08-14T01:56:16;100117.25;;;23.37;nan
37694;BME280;23531;50.122;8.644;2022-08-14T01:58:18;100117.56;;;23.35;nan
37694;BME280;23531;50.122;8.644;2022-08-14T02:00:22;100108.41;;;23.40;nan
37694;BME280;23531;50.122;8.644;2022-08-14T02:02:23;100108.13;;;23.41;nan
37694;BME280;23531;50.122;8.644;2022-08-14T02:04:29;100109.66;;;23.34;nan
37694;BME280;23531;50.122;8.644;2022-08-14T02:06:31;100103.13;;;23.30;nan
37694;BME280;23531;50.122;8.644;2022-08-14T02:08:32;100110.03;;;23.27;nan
37694;BME280;23531;50.122;8.644;2022-08-14T02:10:40;100106.75;;;23.25;nan
37694;BME280;23531;50.122;8.644;2022-08-14T02:12:44;100104.59;;;23.08;nan
37694;BME280;23531;50.122;8.644;2022-08-14T02:14:45;100099.41;;;23.07;nan
37694;BME280;23531;50.122;8.644;2022-08-14T02:16:49;100090.78;;;23.00;nan
37694;BME280;23531;50.122;8.644;2022-08-14T02:18:53;100089.56;;;23.06;nan
37694;BME280;23531;50.122;8.644;2022-08-14T02:20:55;100083.69;;;23.12;nan
37694;BME280;23531;50.122;8.644;2022-08-14T02:22:59;100072.84;;;23.21;nan
37694;BME280;23531;50.122;8.644;2022-08-14T02:25:01;100069.56;;;23.19;nan
37694;BME280;23531;50.122;8.644;2022-08-14T02:27:04;100064.91;;;23.20;nan
37694;BME280;23531;50.122;8.644;2022-08-14T02:29:07;100064.38;;;23.17;nan
37694;BME280;23531;50.122;8.644;2022-08-14T02:31:10;100068.16;;;23.22;nan
37694;BME280;23531;50.122;8.644;2022-08-14T02:33:12;100061.34;;;23.19;nan
37694;BME280;23531;50.122;8.644;2022-08-14T02:35:13;100055.34;;;23.17;nan
37694;BME280;23531;50.122;8.644;2022-08-14T02:37:17;100055.16;;;23.13;nan
37694;BME280;23531;50.122;8.644;2022-08-14T02:39:19;100047.31;;;23.07;nan
37694;BME280;23531;50.122;8.644;2022-08-14T02:41:20;100040.09;;;22.97;nan
37694;BME280;23531;50.122;8.644;2022-08-14T02:43:24;100038.34;;;22.88;nan
37694;BME280;23531;50.122;8.644;2022-08-14T02:45:30;100034.03;;;22.81;nan
37694;BME280;23531;50.122;8.644;2022-08-14T02:47:32;100025.31;;;22.79;nan
37694;BME280;23531;50.122;8.644;2022-08-14T02:49:36;100021.00;;;22.73;nan
37694;BME280;23531;50.122;8.644;2022-08-14T02:51:39;100026.94;;;22.80;nan
37694;BME280;23531;50.122;8.644;2022-08-14T02:53:43;100030.03;;;22.74;nan
37694;BME280;23531;50.122;8.644;2022-08-14T02:55:45;100021.00;;;22.73;nan
37694;BME280;23531;50.122;8.644;2022-08-14T02:57:49;100023.38;;;22.61;nan
37694;BME280;23531;50.122;8.644;2022-08-14T02:59:53;100023.31;;;22.66;nan
37694;BME280;23531;50.122;8.644;2022-08-14T03:01:55;100029.63;;;22.67;nan
37694;BME280;23531;50.122;8.644;2022-08-14T03:03:57;100029.22;;;22.73;nan
37694;BME280;23531;50.122;8.644;2022-08-14T03:05:59;100029.63;;;22.67;nan
37694;BME280;23531;50.122;8.644;2022-08-14T03:08:05;100039.97;;;22.70;nan
37694;BME280;23531;50.122;8.644;2022-08-14T03:10:08;100043.63;;;22.65;nan
37694;BME280;23531;50.122;8.644;2022-08-14T03:12:09;100049.16;;;22.60;nan
37694;BME280;23531;50.122;8.644;2022-08-14T03:14:11;100041.97;;;22.64;nan
37694;BME280;23531;50.122;8.644;2022-08-14T03:16:16;100035.47;;;22.60;nan
37694;BME280;23531;50.122;8.644;2022-08-14T03:18:19;100042.75;;;22.51;nan
37694;BME280;23531;50.122;8.644;2022-08-14T03:20:22;100035.03;;;22.53;nan
37694;BME280;23531;50.122;8.644;2022-08-14T03:22:23;100038.38;;;22.50;nan
37694;BME280;23531;50.122;8.644;2022-08-14T03:24:25;100035.56;;;22.55;nan
37694;BME280;23531;50.122;8.644;2022-08-14T03:26:26;100035.63;;;22.50;nan
37694;BME280;23531;50.122;8.644;2022-08-14T03:28:29;100030.97;;;22.51;nan
37694;BME280;23531;50.122;8.644;2022-08-14T03:30:31;100041.03;;;22.55;nan
37694;BME280;23531;50.122;8.644;2022-08-14T03:32:34;100046.34;;;22.65;nan
37694;BME280;23531;50.122;8.644;2022-08-14T03:34:36;100044.38;;;22.52;nan
37694;BME280;23531;50.122;8.644;2022-08-14T03:36:38;100046.28;;;22.52;nan
37694;BME280;23531;50.122;8.644;2022-08-14T03:38:40;100043.78;;;22.55;nan
37694;BME280;23531;50.122;8.644;2022-08-14T03:40:43;100044.88;;;22.54;nan
37694;BME280;23531;50.122;8.644;2022-08-14T03:42:46;100042.03;;;22.45;nan
37694;BME280;23531;50.122;8.644;2022-08-14T03:44:47;100050.25;;;22.45;nan
37694;BME280;23531;50.122;8.644;2022-08-14T03:46:49;100040.03;;;22.32;nan
37694;BME280;23531;50.122;8.644;2022-08-14T03:48:53;100042.16;;;22.35;nan
37694;BME280;23531;50.122;8.644;2022-08-14T03:50:54;100044.16;;;22.30;nan
37694;BME280;23531;50.122;8.644;2022-08-14T03:52:56;100033.94;;;22.35;nan
37694;BME280;23531;50.122;8.644;2022-08-14T03:54:57;100045.53;;;22.46;nan
37694;BME280;23531;50.122;8.644;2022-08-14T03:56:59;100040.25;;;22.17;nan
37694;BME280;23531;50.122;8.644;2022-08-14T03:59:02;100027.91;;;21.96;nan
37694;BME280;23531;50.122;8.644;2022-08-14T04:01:10;100022.47;;;22.15;nan
37694;BME280;23531;50.122;8.644;2022-08-14T04:03:12;100027.78;;;22.25;nan
37694;BME280;23531;50.122;8.644;2022-08-14T04:05:15;100020.78;;;22.19;nan
37694;BME280;23531;50.122;8.644;2022-08-14T04:07:17;100027.59;;;22.21;nan
37694;BME280;23531;50.122;8.644;2022-08-14T04:09:18;100028.03;;;22.28;nan
37694;BME280;23531;50.122;8.644;2022-08-14T04:11:20;100022.63;;;22.23;nan
37694;BME280;23531;50.122;8.644;2022-08-14T04:13:21;100022.16;;;22.35;nan
37694;BME280;23531;50.122;8.644;2022-08-14T04:15:23;100013.50;;;22.28;nan
37694;BME280;23531;50.122;8.644;2022-08-14T04:17:26;100006.69;;;22.25;nan
37694;BME280;23531;50.122;8.644;2022-08-14T04:19:28;100002.31;;;22.24;nan
37694;BME280;23531;50.122;8.644;2022-08-14T04:21:31;100002.03;;;22.26;nan
37694;BME280;23531;50.122;8.644;2022-08-14T04:23:32;100002.50;;;22.14;nan
37694;BME280;23531;50.122;8.644;2022-08-14T04:25:35;100001.84;;;22.22;nan
37694;BME280;23531;50.122;8.644;2022-08-14T04:27:36;100003.75;;;22.22;nan
37694;BME280;23531;50.122;8.644;2022-08-14T04:29:40;99998.72;;;22.29;nan
37694;BME280;23531;50.122;8.644;2022-08-14T04:31:42;100004.78;;;22.26;nan
37694;BME280;23531;50.122;8.644;2022-08-14T04:33:46;99998.50;;;22.06;nan
37694;BME280;23531;50.122;8.644;2022-08-14T04:35:48;100002.16;;;21.97;nan
37694;BME280;23531;50.122;8.644;2022-08-14T04:37:53;100000.13;;;22.07;nan
37694;BME280;23531;50.122;8.644;2022-08-14T04:40:13;99994.88;;;22.11;nan
37694;BME280;23531;50.122;8.644;2022-08-14T04:42:32;99990.06;;;22.22;nan
37694;BME280;23531;50.122;8.644;2022-08-14T04:44:52;99990.66;;;22.19;nan
37694;BME280;23531;50.122;8.644;2022-08-14T04:46:54;99991.69;;;22.23;nan
37694;BME280;23531;50.122;8.644;2022-08-14T04:49:14;99992.34;;;22.15;nan
37694;BME280;23531;50.122;8.644;2022-08-14T04:51:18;99991.81;;;22.13;nan
37694;BME280;23531;50.122;8.644;2022-08-14T04:53:23;99990.38;;;22.20;nan
37694;BME280;23531;50.122;8.644;2022-08-14T04:55:24;100004.72;;;22.31;nan
37694;BME280;23531;50.122;8.644;2022-08-14T04:57:26;100008.47;;;22.35;nan
37694;BME280;23531;50.122;8.644;2022-08-14T04:59:27;99994.94;;;22.25;nan
37694;BME280;23531;50.122;8.644;2022-08-14T05:01:29;99997.19;;;22.23;nan
37694;BME280;23531;50.122;8.644;2022-08-14T05:03:32;100001.03;;;22.22;nan
37694;BME280;23531;50.122;8.644;2022-08-14T05:05:35;99988.63;;;22.24;nan
37694;BME280;23531;50.122;8.644;2022-08-14T05:07:36;99996.03;;;22.24;nan
37694;BME280;23531;50.122;8.644;2022-08-14T05:09:40;99992.81;;;22.22;nan
37694;BME280;23531;50.122;8.644;2022-08-14T05:11:41;99999.47;;;22.16;nan
37694;BME280;23531;50.122;8.644;2022-08-14T05:13:43;99999.16;;;22.17;nan
37694;BME280;23531;50.122;8.644;2022-08-14T05:15:45;100009.88;;;22.14;nan
37694;BME280;23531;50.122;8.644;2022-08-14T05:17:48;100006.56;;;22.17;nan
37694;BME280;23531;50.122;8.644;2022-08-14T05:19:52;100004.72;;;22.12;nan
37694;BME280;23531;50.122;8.644;2022-08-14T05:21:53;100009.53;;;22.20;nan
37694;BME280;23531;50.122;8.644;2022-08-14T05:23:58;100010.78;;;22.28;nan
37694;BME280;23531;50.122;8.644;2022-08-14T05:26:02;100007.09;;;22.19;nan
37694;BME280;23531;50.122;8.644;2022-08-14T05:28:10;100011.34;;;22.25;nan
37694;BME280;23531;50.122;8.644;2022-08-14T05:30:12;100005.53;;;22.31;nan
37694;BME280;23531;50.122;8.644;2022-08-14T05:32:14;100007.97;;;22.33;nan
37694;BME280;23531;50.122;8.644;2022-08-14T05:36:27;100010.63;;;22.38;nan
37694;BME280;23531;50.122;8.644;2022-08-14T05:38:32;100005.72;;;22.35;nan
37694;BME280;23531;50.122;8.644;2022-08-14T05:40:35;100012.94;;;22.31;nan
37694;BME280;23531;50.122;8.644;2022-08-14T05:42:37;100011.00;;;22.31;nan
37694;BME280;23531;50.122;8.644;2022-08-14T05:44:39;100007.34;;;22.36;nan
37694;BME280;23531;50.122;8.644;2022-08-14T05:46:40;100006.41;;;22.27;nan
37694;BME280;23531;50.122;8.644;2022-08-14T05:48:42;100000.78;;;22.18;nan
37694;BME280;23531;50.122;8.644;2022-08-14T05:50:44;100008.31;;;22.26;nan
37694;BME280;23531;50.122;8.644;2022-08-14T05:52:47;100004.19;;;22.29;nan
37694;BME280;23531;50.122;8.644;2022-08-14T05:54:49;100000.13;;;22.26;nan
37694;BME280;23531;50.122;8.644;2022-08-14T05:56:50;100007.88;;;22.38;nan
37694;BME280;23531;50.122;8.644;2022-08-14T05:58:53;100000.47;;;22.38;nan
37694;BME280;23531;50.122;8.644;2022-08-14T06:00:54;100001.81;;;22.41;nan
37694;BME280;23531;50.122;8.644;2022-08-14T06:02:57;99996.84;;;22.43;nan
37694;BME280;23531;50.122;8.644;2022-08-14T06:04:59;99994.09;;;22.43;nan
37694;BME280;23531;50.122;8.644;2022-08-14T06:07:01;99994.75;;;22.35;nan
37694;BME280;23531;50.122;8.644;2022-08-14T06:09:03;99996.34;;;22.41;nan
37694;BME280;23531;50.122;8.644;2022-08-14T06:11:06;99988.69;;;22.57;nan
37694;BME280;23531;50.122;8.644;2022-08-14T06:13:07;99988.47;;;22.53;nan
37694;BME280;23531;50.122;8.644;2022-08-14T06:15:11;99987.28;;;22.40;nan
37694;BME280;23531;50.122;8.644;2022-08-14T06:17:12;99981.28;;;22.38;nan
37694;BME280;23531;50.122;8.644;2022-08-14T06:19:13;99981.34;;;22.52;nan
37694;BME280;23531;50.122;8.644;2022-08-14T06:21:15;99982.88;;;22.58;nan
37694;BME280;23531;50.122;8.644;2022-08-14T06:23:16;99985.13;;;22.56;nan
37694;BME280;23531;50.122;8.644;2022-08-14T06:25:18;99985.13;;;22.56;nan
37694;BME280;23531;50.122;8.644;2022-08-14T06:27:19;99976.44;;;22.68;nan
37694;BME280;23531;50.122;8.644;2022-08-14T06:29:21;99980.69;;;22.74;nan
37694;BME280;23531;50.122;8.644;2022-08-14T06:31:24;99981.75;;;22.78;nan
37694;BME280;23531;50.122;8.644;2022-08-14T06:33:25;99974.94;;;22.75;nan
37694;BME280;23531;50.122;8.644;2022-08-14T06:35:26;99986.94;;;22.79;nan
37694;BME280;23531;50.122;8.644;2022-08-14T06:37:37;99974.66;;;22.77;nan
37694;BME280;23531;50.122;8.644;2022-08-14T06:39:38;99975.16;;;22.79;nan
37694;BME280;23531;50.122;8.644;2022-08-14T06:41:40;99976.47;;;22.81;nan
37694;BME280;23531;50.122;8.644;2022-08-14T06:43:41;99975.97;;;22.79;nan
37694;BME280;23531;50.122;8.644;2022-08-14T06:45:44;99982.56;;;22.78;nan
37694;BME280;23531;50.122;8.644;2022-08-14T06:47:48;99986.44;;;22.77;nan
37694;BME280;23531;50.122;8.644;2022-08-14T06:49:49;99988.47;;;22.86;nan
37694;BME280;23531;50.122;8.644;2022-08-14T06:51:50;99983.69;;;22.91;nan
37694;BME280;23531;50.122;8.644;2022-08-14T06:53:53;99984.66;;;23.00;nan
37694;BME280;23531;50.122;8.644;2022-08-14T06:55:55;99980.94;;;22.91;nan
37694;BME280;23531;50.122;8.644;2022-08-14T06:57:57;99976.09;;;22.88;nan
37694;BME280;23531;50.122;8.644;2022-08-14T06:59:59;99969.59;;;22.98;nan
37694;BME280;23531;50.122;8.644;2022-08-14T07:02:00;99966.88;;;22.98;nan
37694;BME280;23531;50.122;8.644;2022-08-14T07:04:20;99960.16;;;23.04;nan
37694;BME280;23531;50.122;8.644;2022-08-14T07:06:39;99953.56;;;23.05;nan
37694;BME280;23531;50.122;8.644;2022-08-14T07:08:41;99949.09;;;23.09;nan
37694;BME280;23531;50.122;8.644;2022-08-14T07:10:44;99951.72;;;23.14;nan
37694;BME280;23531;50.122;8.644;2022-08-14T07:12:46;99946.16;;;23.19;nan
37694;BME280;23531;50.122;8.644;2022-08-14T07:14:48;99942.00;;;23.22;nan
37694;BME280;23531;50.122;8.644;2022-08-14T07:16:49;99933.63;;;23.27;nan
37694;BME280;23531;50.122;8.644;2022-08-14T07:18:50;99937.31;;;23.36;nan
37694;BME280;23531;50.122;8.644;2022-08-14T07:20:54;99932.81;;;23.40;nan
37694;BME280;23531;50.122;8.644;2022-08-14T07:22:56;99922.88;;;23.44;nan
37694;BME280;23531;50.122;8.644;2022-08-14T07:24:59;99928.97;;;23.55;nan
37694;BME280;23531;50.122;8.644;2022-08-14T07:27:00;99914.66;;;23.58;nan
37694;BME280;23531;50.122;8.644;2022-08-14T07:29:02;99913.53;;;23.59;nan
37694;BME280;23531;50.122;8.644;2022-08-14T07:31:05;99899.94;;;23.76;nan
37694;BME280;23531;50.122;8.644;2022-08-14T07:33:07;99901.41;;;24.40;nan
37694;BME280;23531;50.122;8.644;2022-08-14T07:35:09;99894.00;;;25.11;nan
37694;BME280;23531;50.122;8.644;2022-08-14T07:37:12;99901.72;;;25.57;nan
37694;BME280;23531;50.122;8.644;2022-08-14T07:39:15;99900.59;;;26.10;nan
37694;BME280;23531;50.122;8.644;2022-08-14T07:41:16;99909.75;;;26.74;nan
37694;BME280;23531;50.122;8.644;2022-08-14T07:43:19;99910.78;;;27.08;nan
37694;BME280;23531;50.122;8.644;2022-08-14T07:45:21;99908.41;;;27.48;nan
37694;BME280;23531;50.122;8.644;2022-08-14T07:47:23;99910.34;;;27.98;nan
37694;BME280;23531;50.122;8.644;2022-08-14T07:49:26;99900.09;;;28.19;nan
37694;BME280;23531;50.122;8.644;2022-08-14T07:51:27;99903.16;;;28.38;nan
37694;BME280;23531;50.122;8.644;2022-08-14T07:53:30;99892.03;;;28.71;nan
37694;BME280;23531;50.122;8.644;2022-08-14T07:55:32;99892.66;;;29.25;nan
37694;BME280;23531;50.122;8.644;2022-08-14T07:57:35;99895.22;;;29.43;nan
37694;BME280;23531;50.122;8.644;2022-08-14T07:59:37;99901.44;;;29.40;nan
37694;BME280;23531;50.122;8.644;2022-08-14T08:01:41;99904.19;;;29.64;nan
37694;BME280;23531;50.122;8.644;2022-08-14T08:03:45;99903.97;;;29.57;nan
37694;BME280;23531;50.122;8.644;2022-08-14T08:05:48;99910.56;;;29.92;nan
37694;BME280;23531;50.122;8.644;2022-08-14T08:07:50;99914.56;;;30.07;nan
37694;BME280;23531;50.122;8.644;2022-08-14T08:09:55;99912.13;;;30.61;nan
37694;BME280;23531;50.122;8.644;2022-08-14T08:11:57;99910.09;;;30.74;nan
37694;BME280;23531;50.122;8.644;2022-08-14T08:14:00;99917.78;;;30.96;nan
37694;BME280;23531;50.122;8.644;2022-08-14T08:16:06;99926.22;;;31.31;nan
37694;BME280;23531;50.122;8.644;2022-08-14T08:18:10;99923.06;;;31.49;nan
37694;BME280;23531;50.122;8.644;2022-08-14T08:20:14;99923.88;;;31.33;nan
37694;BME280;23531;50.122;8.644;2022-08-14T08:22:16;99913.25;;;31.20;nan
37694;BME280;23531;50.122;8.644;2022-08-14T08:24:20;99913.28;;;30.60;nan
37694;BME280;23531;50.122;8.644;2022-08-14T08:26:29;99911.91;;;30.11;nan
37694;BME280;23531;50.122;8.644;2022-08-14T08:28:30;99909.94;;;30.11;nan
37694;BME280;23531;50.122;8.644;2022-08-14T08:30:32;99911.53;;;29.72;nan
37694;BME280;23531;50.122;8.644;2022-08-14T08:32:37;99915.16;;;29.36;nan
37694;BME280;23531;50.122;8.644;2022-08-14T08:34:43;99909.72;;;28.91;nan
37694;BME280;23531;50.122;8.644;2022-08-14T08:36:45;99905.97;;;28.50;nan
37694;BME280;23531;50.122;8.644;2022-08-14T08:38:47;99910.97;;;28.36;nan
37694;BME280;23531;50.122;8.644;2022-08-14T08:41:41;99901.38;;;28.22;40.06
37694;BME280;23531;50.122;8.644;2022-08-14T08:43:42;99903.53;;;27.95;40.82
37694;BME280;23531;50.122;8.644;2022-08-14T08:45:52;99900.84;;;27.66;41.69
37694;BME280;23531;50.122;8.644;2022-08-14T08:47:54;99900.25;;;27.60;41.65
37694;BME280;23531;50.122;8.644;2022-08-14T08:49:56;99901.00;;;27.40;41.52
37694;BME280;23531;50.122;8.644;2022-08-14T08:52:00;99899.66;;;27.46;41.82
37694;BME280;23531;50.122;8.644;2022-08-14T08:54:04;99892.19;;;27.46;41.76
37694;BME280;23531;50.122;8.644;2022-08-14T08:56:06;99889.03;;;27.57;41.93
37694;BME280;23531;50.122;8.644;2022-08-14T08:58:11;99882.75;;;27.47;41.94
37694;BME280;23531;50.122;8.644;2022-08-14T09:00:15;99881.34;;;27.41;41.84
37694;BME280;23531;50.122;8.644;2022-08-14T09:02:18;99880.94;;;27.31;42.28
37694;BME280;23531;50.122;8.644;2022-08-14T09:04:19;99880.31;;;27.25;42.40
37694;BME280;23531;50.122;8.644;2022-08-14T09:06:21;99887.34;;;27.14;42.37
37694;BME280;23531;50.122;8.644;2022-08-14T09:08:24;99882.22;;;27.04;42.21
37694;BME280;23531;50.122;8.644;2022-08-14T09:10:25;99879.13;;;27.05;41.84
37694;BME280;23531;50.122;8.644;2022-08-14T09:12:30;99891.09;;;27.09;41.99
37694;BME280;23531;50.122;8.644;2022-08-14T09:14:33;99881.97;;;27.18;42.19
37694;BME280;23531;50.122;8.644;2022-08-14T09:16:35;99875.59;;;27.26;41.75
37694;BME280;23531;50.122;8.644;2022-08-14T09:18:39;99877.28;;;27.18;41.77
37694;BME280;23531;50.122;8.644;2022-08-14T09:20:44;99880.25;;;27.04;41.81
37694;BME280;23531;50.122;8.644;2022-08-14T09:22:46;99879.63;;;26.99;42.08
37694;BME280;23531;50.122;8.644;2022-08-14T09:24:49;99881.56;;;27.07;42.21
37694;BME280;23531;50.122;8.644;2022-08-14T09:26:51;99868.91;;;27.06;42.12
37694;BME280;23531;50.122;8.644;2022-08-14T09:28:53;99869.97;;;27.14;42.10
37694;BME280;23531;50.122;8.644;2022-08-14T09:30:56;99862.91;;;27.04;41.84
37694;BME280;23531;50.122;8.644;2022-08-14T09:35:42;99860.13;;;27.04;41.85
37694;BME280;23531;50.122;8.644;2022-08-14T09:37:54;99856.72;;;27.07;41.79
37694;BME280;23531;50.122;8.644;2022-08-14T09:40:04;99856.50;;;27.12;41.81
37694;BME280;23531;50.122;8.644;2022-08-14T09:42:20;99861.59;;;27.01;41.91
37694;BME280;23531;50.122;8.644;2022-08-14T09:44:37;99854.78;;;27.07;41.61
37694;BME280;23531;50.122;8.644;2022-08-14T09:46:52;99856.38;;;27.08;41.04
37694;BME280;23531;50.122;8.644;2022-08-14T09:48:57;99848.22;;;27.12;41.46
37694;BME280;23531;50.122;8.644;2022-08-14T09:50:59;99854.84;;;27.20;41.09
37694;BME280;23531;50.122;8.644;2022-08-14T09:53:03;99847.25;;;27.17;41.12
37694;BME280;23531;50.122;8.644;2022-08-14T09:55:15;99841.25;;;27.15;41.21
37694;BME280;23531;50.122;8.644;2022-08-14T09:57:23;99841.97;;;27.03;41.11
37694;BME280;23531;50.122;8.644;2022-08-14T09:59:25;99838.22;;;27.07;41.23
37694;BME280;23531;50.122;8.644;2022-08-14T10:01:35;99831.56;;;27.08;41.16
37694;BME280;23531;50.122;8.644;2022-08-14T10:03:47;99822.88;;;27.19;41.43
37694;BME280;23531;50.122;8.644;2022-08-14T10:05:49;99812.91;;;27.26;40.76
37694;BME280;23531;50.122;8.644;2022-08-14T10:07:50;99808.88;;;27.24;40.96
37694;BME280;23531;50.122;8.644;2022-08-14T10:09:52;99813.72;;;27.27;40.69
37694;BME280;23531;50.122;8.644;2022-08-14T10:11:56;99811.97;;;27.22;40.49
37694;BME280;23531;50.122;8.644;2022-08-14T10:13:59;99812.28;;;27.21;40.78
37694;BME280;23531;50.122;8.644;2022-08-14T10:16:11;99812.03;;;27.14;40.54
37694;BME280;23531;50.122;8.644;2022-08-14T10:18:14;99804.38;;;27.19;40.59
37694;BME280;23531;50.122;8.644;2022-08-14T10:20:32;99801.53;;;27.28;40.43
37694;BME280;23531;50.122;8.644;2022-08-14T10:22:34;99795.69;;;27.29;39.92
37694;BME280;23531;50.122;8.644;2022-08-14T10:24:37;99796.28;;;27.35;39.88
37694;BME280;23531;50.122;8.644;2022-08-14T10:26:40;99792.03;;;27.37;39.92
37694;BME280;23531;50.122;8.644;2022-08-14T10:28:43;99801.72;;;27.43;39.15
37694;BME280;23531;50.122;8.644;2022-08-14T10:30:46;99789.84;;;27.31;39.29
37694;BME280;23531;50.122;8.644;2022-08-14T10:32:52;99795.81;;;27.33;38.49
37694;BME280;23531;50.122;8.644;2022-08-14T10:35:04;99781.47;;;27.39;38.01
37694;BME280;23531;50.122;8.644;2022-08-14T10:37:09;99787.72;;;27.48;38.19
37694;BME280;23531;50.122;8.644;2022-08-14T10:39:16;99782.19;;;27.48;38.03
37694;BME280;23531;50.122;8.644;2022-08-14T10:41:18;99779.06;;;27.59;37.72
37694;BME280;23531;50.122;8.644;2022-08-14T10:43:22;99786.88;;;27.57;37.70
37694;BME280;23531;50.122;8.644;2022-08-14T10:45:29;99781.25;;;27.65;37.61
37694;BME280;23531;50.122;8.644;2022-08-14T10:47:34;99770.09;;;27.62;38.13
37694;BME280;23531;50.122;8.644;2022-08-14T10:49:38;99768.47;;;27.61;37.46
37694;BME280;23531;50.122;8.644;2022-08-14T10:51:58;99761.59;;;27.67;37.71
37694;BME280;23531;50.122;8.644;2022-08-14T10:54:08;99755.06;;;27.71;37.30
37694;BME280;23531;50.122;8.644;2022-08-14T10:56:10;99754.03;;;27.76;37.40
37694;BME280;23531;50.122;8.644;2022-08-14T10:58:13;99751.28;;;27.88;37.33
37694;BME280;23531;50.122;8.644;2022-08-14T11:00:17;99755.13;;;27.96;37.36
37694;BME280;23531;50.122;8.644;2022-08-14T11:02:21;99755.16;;;28.08;36.94
37694;BME280;23531;50.122;8.644;2022-08-14T11:04:24;99751.56;;;27.95;37.29
37694;BME280;23531;50.122;8.644;2022-08-14T11:06:28;99758.13;;;28.03;36.68
37694;BME280;23531;50.122;8.644;2022-08-14T11:08:31;99754.91;;;28.13;36.71
37694;BME280;23531;50.122;8.644;2022-08-14T11:10:43;99755.16;;;28.08;36.37